sensor_id;sensor_type;location;lat;lon;timestamp;temperature;humidity
22923;DHT22;11627;51.322;22.816;2022-08-03T00:00:05;18.70;1.00
22923;DHT22;11627;51.322;22.816;2022-08-03T00:02:31;18.80;99.90
22923;DHT22;11627;51.322;22.816;2022-08-03T00:04:56;18.50;1.00
22923;DHT22;11627;51.322;22.816;2022-08-03T00:07:22;18.90;1.00
22923;DHT22;11627;51.322;22.816;2022-08-03T00:09:48;18.80;1.00
22923;DHT22;11627;51.322;22.816;2022-08-03T00:12:14;18.80;1.00
22923;DHT22;11627;51.322;22.816;2022-08-03T00:14:40;18.60;1.00
22923;DHT22;11627;51.322;22.816;2022-08-03T00:17:06;18.90;1.00
22923;DHT22;11627;51.322;22.816;2022-08-03T00:19:32;19.00;1.00
22923;DHT22;11627;51.322;22.816;2022-08-03T00:21:57;18.80;1.00
22923;DHT22;11627;51.322;22.816;2022-08-03T00:26:49;18.70;1.00
22923;DHT22;11627;51.322;22.816;2022-08-03T00:29:15;19.00;1.00
22923;DHT22;11627;51.322;22.816;2022-08-03T00:31:40;19.20;1.00
22923;DHT22;11627;51.322;22.816;2022-08-03T00:34:06;19.00;1.00
22923;DHT22;11627;51.322;22.816;2022-08-03T00:36:31;18.90;1.00
22923;DHT22;11627;51.322;22.816;2022-08-03T00:38:57;18.90;1.00
22923;DHT22;11627;51.322;22.816;2022-08-03T00:41:23;18.90;1.00
22923;DHT22;11627;51.322;22.816;2022-08-03T00:43:48;19.70;1.00
22923;DHT22;11627;51.322;22.816;2022-08-03T00:46:14;18.90;1.00
22923;DHT22;11627;51.322;22.816;2022-08-03T00:48:40;18.90;1.00
22923;DHT22;11627;51.322;22.816;2022-08-03T00:51:06;18.70;1.00
22923;DHT22;11627;51.322;22.816;2022-08-03T00:53:32;18.70;99.90
22923;DHT22;11627;51.322;22.816;2022-08-03T00:55:59;19.00;99.90
22923;DHT22;11627;51.322;22.816;2022-08-03T00:58:25;19.00;99.90
22923;DHT22;11627;51.322;22.816;2022-08-03T01:00:50;18.90;99.90
22923;DHT22;11627;51.322;22.816;2022-08-03T01:03:16;19.10;1.00
22923;DHT22;11627;51.322;22.816;2022-08-03T01:08:25;18.70;1.00
22923;DHT22;11627;51.322;22.816;2022-08-03T01:14:14;18.90;1.00
22923;DHT22;11627;51.322;22.816;2022-08-03T01:19:44;18.50;1.00
22923;DHT22;11627;51.322;22.816;2022-08-03T01:31:02;18.70;1.00
22923;DHT22;11627;51.322;22.816;2022-08-03T01:33:38;18.70;1.00
22923;DHT22;11627;51.322;22.816;2022-08-03T01:36:13;18.70;1.00
22923;DHT22;11627;51.322;22.816;2022-08-03T01:38:45;18.70;1.00
22923;DHT22;11627;51.322;22.816;2022-08-03T01:41:19;18.60;1.00
22923;DHT22;11627;51.322;22.816;2022-08-03T01:43:48;18.60;1.00
22923;DHT22;11627;51.322;22.816;2022-08-03T01:46:16;19.10;1.00
22923;DHT22;11627;51.322;22.816;2022-08-03T01:48:46;18.50;1.00
22923;DHT22;11627;51.322;22.816;2022-08-03T01:51:15;18.30;1.00
22923;DHT22;11627;51.322;22.816;2022-08-03T01:53:43;18.60;1.00
22923;DHT22;11627;51.322;22.816;2022-08-03T01:56:10;18.40;1.00
22923;DHT22;11627;51.322;22.816;2022-08-03T01:58:37;18.50;1.00
22923;DHT22;11627;51.322;22.816;2022-08-03T02:01:06;18.60;1.00
22923;DHT22;11627;51.322;22.816;2022-08-03T02:03:36;18.80;1.00
22923;DHT22;11627;51.322;22.816;2022-08-03T02:06:04;18.70;1.00
22923;DHT22;11627;51.322;22.816;2022-08-03T02:08:31;18.40;1.00
22923;DHT22;11627;51.322;22.816;2022-08-03T02:10:58;18.50;1.00
22923;DHT22;11627;51.322;22.816;2022-08-03T02:13:25;18.50;1.00
22923;DHT22;11627;51.322;22.816;2022-08-03T02:15:52;18.40;1.00
22923;DHT22;11627;51.322;22.816;2022-08-03T02:18:19;18.60;1.00
22923;DHT22;11627;51.322;22.816;2022-08-03T02:20:46;18.50;1.00
22923;DHT22;11627;51.322;22.816;2022-08-03T02:23:16;18.50;1.00
22923;DHT22;11627;51.322;22.816;2022-08-03T02:25:45;18.60;1.00
22923;DHT22;11627;51.322;22.816;2022-08-03T02:28:18;18.60;1.00
22923;DHT22;11627;51.322;22.816;2022-08-03T02:30:49;18.60;1.00
22923;DHT22;11627;51.322;22.816;2022-08-03T02:33:23;18.50;1.00
22923;DHT22;11627;51.322;22.816;2022-08-03T02:35:52;18.30;1.00
22923;DHT22;11627;51.322;22.816;2022-08-03T02:38:20;18.20;1.00
22923;DHT22;11627;51.322;22.816;2022-08-03T02:40:50;18.60;1.00
22923;DHT22;11627;51.322;22.816;2022-08-03T02:43:18;18.30;1.00
22923;DHT22;11627;51.322;22.816;2022-08-03T02:45:48;18.40;1.00
22923;DHT22;11627;51.322;22.816;2022-08-03T02:48:17;18.40;1.00
22923;DHT22;11627;51.322;22.816;2022-08-03T02:50:46;18.00;1.00
22923;DHT22;11627;51.322;22.816;2022-08-03T02:53:13;18.10;1.00
22923;DHT22;11627;51.322;22.816;2022-08-03T02:55:41;18.20;1.00
22923;DHT22;11627;51.322;22.816;2022-08-03T02:58:07;18.00;1.00
22923;DHT22;11627;51.322;22.816;2022-08-03T03:00:35;18.00;1.00
22923;DHT22;11627;51.322;22.816;2022-08-03T03:03:03;18.00;1.00
22923;DHT22;11627;51.322;22.816;2022-08-03T03:05:31;18.00;1.00
22923;DHT22;11627;51.322;22.816;2022-08-03T03:07:57;17.90;1.00
22923;DHT22;11627;51.322;22.816;2022-08-03T03:10:23;17.90;1.00
22923;DHT22;11627;51.322;22.816;2022-08-03T03:12:52;18.00;1.00
22923;DHT22;11627;51.322;22.816;2022-08-03T03:15:21;18.00;1.00
22923;DHT22;11627;51.322;22.816;2022-08-03T03:17:48;17.90;1.00
22923;DHT22;11627;51.322;22.816;2022-08-03T03:20:16;17.80;1.00
22923;DHT22;11627;51.322;22.816;2022-08-03T03:22:43;17.90;1.00
22923;DHT22;11627;51.322;22.816;2022-08-03T03:25:10;17.80;1.00
22923;DHT22;11627;51.322;22.816;2022-08-03T03:27:36;17.90;1.00
22923;DHT22;11627;51.322;22.816;2022-08-03T03:30:03;17.80;1.00
22923;DHT22;11627;51.322;22.816;2022-08-03T03:32:29;17.90;1.00
22923;DHT22;11627;51.322;22.816;2022-08-03T03:34:55;18.00;1.00
22923;DHT22;11627;51.322;22.816;2022-08-03T03:37:24;17.80;1.00
22923;DHT22;11627;51.322;22.816;2022-08-03T03:39:52;17.90;1.00
22923;DHT22;11627;51.322;22.816;2022-08-03T03:42:19;18.30;1.00
22923;DHT22;11627;51.322;22.816;2022-08-03T03:44:45;18.00;1.00
22923;DHT22;11627;51.322;22.816;2022-08-03T03:47:12;17.80;1.00
22923;DHT22;11627;51.322;22.816;2022-08-03T03:49:38;17.80;1.00
22923;DHT22;11627;51.322;22.816;2022-08-03T03:52:05;18.40;1.00
22923;DHT22;11627;51.322;22.816;2022-08-03T03:54:41;18.30;1.00
22923;DHT22;11627;51.322;22.816;2022-08-03T03:59:37;17.90;1.00
22923;DHT22;11627;51.322;22.816;2022-08-03T04:02:07;17.90;1.00
22923;DHT22;11627;51.322;22.816;2022-08-03T04:04:34;17.90;1.00
22923;DHT22;11627;51.322;22.816;2022-08-03T04:07:19;18.30;1.00
22923;DHT22;11627;51.322;22.816;2022-08-03T04:10:11;18.00;1.00
22923;DHT22;11627;51.322;22.816;2022-08-03T04:12:58;18.50;1.00
22923;DHT22;11627;51.322;22.816;2022-08-03T04:15:26;18.30;1.00
22923;DHT22;11627;51.322;22.816;2022-08-03T04:17:56;18.10;1.00
22923;DHT22;11627;51.322;22.816;2022-08-03T04:20:26;18.40;1.00
22923;DHT22;11627;51.322;22.816;2022-08-03T04:22:53;19.70;1.00
22923;DHT22;11627;51.322;22.816;2022-08-03T04:25:22;18.40;1.00
22923;DHT22;11627;51.322;22.816;2022-08-03T04:27:49;18.80;1.00
22923;DHT22;11627;51.322;22.816;2022-08-03T04:30:20;18.50;1.00
22923;DHT22;11627;51.322;22.816;2022-08-03T04:32:46;18.80;1.00
22923;DHT22;11627;51.322;22.816;2022-08-03T04:35:16;18.80;1.00
22923;DHT22;11627;51.322;22.816;2022-08-03T04:37:48;19.00;1.00
22923;DHT22;11627;51.322;22.816;2022-08-03T04:40:20;18.90;1.00
22923;DHT22;11627;51.322;22.816;2022-08-03T04:42:48;19.80;1.00
22923;DHT22;11627;51.322;22.816;2022-08-03T04:45:15;19.10;1.00
22923;DHT22;11627;51.322;22.816;2022-08-03T04:47:41;19.30;1.00
22923;DHT22;11627;51.322;22.816;2022-08-03T04:50:08;19.50;1.00
22923;DHT22;11627;51.322;22.816;2022-08-03T04:52:34;19.50;1.00
22923;DHT22;11627;51.322;22.816;2022-08-03T04:55:00;19.60;1.00
22923;DHT22;11627;51.322;22.816;2022-08-03T04:57:26;19.60;1.00
22923;DHT22;11627;51.322;22.816;2022-08-03T04:59:53;19.70;1.00
22923;DHT22;11627;51.322;22.816;2022-08-03T05:02:19;19.70;1.00
22923;DHT22;11627;51.322;22.816;2022-08-03T05:04:45;19.80;1.00
22923;DHT22;11627;51.322;22.816;2022-08-03T05:07:12;19.90;1.00
22923;DHT22;11627;51.322;22.816;2022-08-03T05:09:38;19.80;1.00
22923;DHT22;11627;51.322;22.816;2022-08-03T05:12:05;20.20;1.00
22923;DHT22;11627;51.322;22.816;2022-08-03T05:14:34;20.20;1.00
22923;DHT22;11627;51.322;22.816;2022-08-03T05:17:04;20.40;99.90
22923;DHT22;11627;51.322;22.816;2022-08-03T05:19:30;20.20;99.90
22923;DHT22;11627;51.322;22.816;2022-08-03T05:21:57;20.30;99.90
22923;DHT22;11627;51.322;22.816;2022-08-03T05:24:22;20.40;99.90
22923;DHT22;11627;51.322;22.816;2022-08-03T05:26:48;20.70;99.90
22923;DHT22;11627;51.322;22.816;2022-08-03T05:29:14;20.80;99.90
22923;DHT22;11627;51.322;22.816;2022-08-03T05:31:39;20.80;99.90
22923;DHT22;11627;51.322;22.816;2022-08-03T05:34:05;20.60;99.90
22923;DHT22;11627;51.322;22.816;2022-08-03T05:36:31;20.60;99.90
22923;DHT22;11627;51.322;22.816;2022-08-03T05:38:56;20.50;99.90
22923;DHT22;11627;51.322;22.816;2022-08-03T05:41:22;20.70;99.90
22923;DHT22;11627;51.322;22.816;2022-08-03T05:43:48;20.80;99.90
22923;DHT22;11627;51.322;22.816;2022-08-03T05:46:15;20.80;99.90
22923;DHT22;11627;51.322;22.816;2022-08-03T05:48:41;20.80;99.90
22923;DHT22;11627;51.322;22.816;2022-08-03T05:51:07;21.80;99.90
22923;DHT22;11627;51.322;22.816;2022-08-03T05:53:35;20.90;62.10
22923;DHT22;11627;51.322;22.816;2022-08-03T05:56:03;21.10;55.40
22923;DHT22;11627;51.322;22.816;2022-08-03T05:58:28;21.10;1.00
22923;DHT22;11627;51.322;22.816;2022-08-03T06:00:55;21.10;99.90
22923;DHT22;11627;51.322;22.816;2022-08-03T06:03:20;21.20;99.90
22923;DHT22;11627;51.322;22.816;2022-08-03T06:05:46;21.20;99.90
22923;DHT22;11627;51.322;22.816;2022-08-03T06:08:12;21.30;99.90
22923;DHT22;11627;51.322;22.816;2022-08-03T06:10:38;21.40;99.90
22923;DHT22;11627;51.322;22.816;2022-08-03T06:13:03;21.70;99.90
22923;DHT22;11627;51.322;22.816;2022-08-03T06:15:29;21.50;99.90
22923;DHT22;11627;51.322;22.816;2022-08-03T06:17:57;22.70;99.90
22923;DHT22;11627;51.322;22.816;2022-08-03T06:20:23;21.70;99.90
22923;DHT22;11627;51.322;22.816;2022-08-03T06:22:49;21.80;99.90
22923;DHT22;11627;51.322;22.816;2022-08-03T06:25:15;21.90;99.90
22923;DHT22;11627;51.322;22.816;2022-08-03T06:27:44;21.90;99.90
22923;DHT22;11627;51.322;22.816;2022-08-03T06:30:11;21.70;99.90
22923;DHT22;11627;51.322;22.816;2022-08-03T06:32:39;21.90;99.90
22923;DHT22;11627;51.322;22.816;2022-08-03T06:35:06;22.60;99.90
22923;DHT22;11627;51.322;22.816;2022-08-03T06:37:44;22.00;99.90
22923;DHT22;11627;51.322;22.816;2022-08-03T06:40:12;22.00;99.90
22923;DHT22;11627;51.322;22.816;2022-08-03T06:42:40;22.10;99.90
22923;DHT22;11627;51.322;22.816;2022-08-03T06:45:07;22.20;99.90
22923;DHT22;11627;51.322;22.816;2022-08-03T06:47:35;22.20;83.00
22923;DHT22;11627;51.322;22.816;2022-08-03T06:50:03;22.20;99.90
22923;DHT22;11627;51.322;22.816;2022-08-03T06:52:30;22.20;99.90
22923;DHT22;11627;51.322;22.816;2022-08-03T06:54:56;22.30;99.90
22923;DHT22;11627;51.322;22.816;2022-08-03T06:57:22;22.90;99.90
22923;DHT22;11627;51.322;22.816;2022-08-03T06:59:47;22.30;1.00
22923;DHT22;11627;51.322;22.816;2022-08-03T07:02:13;22.40;1.00
22923;DHT22;11627;51.322;22.816;2022-08-03T07:04:39;22.40;99.90
22923;DHT22;11627;51.322;22.816;2022-08-03T07:07:04;22.50;1.00
22923;DHT22;11627;51.322;22.816;2022-08-03T07:09:30;22.60;99.90
22923;DHT22;11627;51.322;22.816;2022-08-03T07:11:56;22.60;99.90
22923;DHT22;11627;51.322;22.816;2022-08-03T07:14:23;22.60;62.40
22923;DHT22;11627;51.322;22.816;2022-08-03T07:16:48;22.70;1.00
22923;DHT22;11627;51.322;22.816;2022-08-03T07:19:14;22.80;1.00
22923;DHT22;11627;51.322;22.816;2022-08-03T07:21:40;22.80;64.50
22923;DHT22;11627;51.322;22.816;2022-08-03T07:24:05;22.80;1.00
22923;DHT22;11627;51.322;22.816;2022-08-03T07:26:31;22.80;32.50
22923;DHT22;11627;51.322;22.816;2022-08-03T07:28:57;22.80;1.00
22923;DHT22;11627;51.322;22.816;2022-08-03T07:31:23;22.80;1.00
22923;DHT22;11627;51.322;22.816;2022-08-03T07:33:49;22.90;1.00
22923;DHT22;11627;51.322;22.816;2022-08-03T07:38:42;22.90;99.90
22923;DHT22;11627;51.322;22.816;2022-08-03T07:41:08;23.00;99.90
22923;DHT22;11627;51.322;22.816;2022-08-03T07:43:33;23.00;26.70
22923;DHT22;11627;51.322;22.816;2022-08-03T07:45:59;23.00;99.90
22923;DHT22;11627;51.322;22.816;2022-08-03T07:48:24;23.40;45.30
22923;DHT22;11627;51.322;22.816;2022-08-03T07:50:50;23.40;99.90
22923;DHT22;11627;51.322;22.816;2022-08-03T07:53:17;23.20;1.00
22923;DHT22;11627;51.322;22.816;2022-08-03T07:55:42;23.50;99.90
22923;DHT22;11627;51.322;22.816;2022-08-03T07:58:10;23.40;1.00
22923;DHT22;11627;51.322;22.816;2022-08-03T08:00:37;25.00;99.90
22923;DHT22;11627;51.322;22.816;2022-08-03T08:03:03;22.90;99.90
22923;DHT22;11627;51.322;22.816;2022-08-03T08:05:29;23.70;1.00
22923;DHT22;11627;51.322;22.816;2022-08-03T08:07:56;24.30;99.90
22923;DHT22;11627;51.322;22.816;2022-08-03T08:10:21;23.50;99.90
22923;DHT22;11627;51.322;22.816;2022-08-03T08:12:47;23.50;99.90
22923;DHT22;11627;51.322;22.816;2022-08-03T08:15:13;23.50;99.90
22923;DHT22;11627;51.322;22.816;2022-08-03T08:17:51;23.60;99.90
22923;DHT22;11627;51.322;22.816;2022-08-03T08:20:21;24.10;1.00
22923;DHT22;11627;51.322;22.816;2022-08-03T08:22:48;23.80;99.90
22923;DHT22;11627;51.322;22.816;2022-08-03T08:25:14;23.70;99.90
22923;DHT22;11627;51.322;22.816;2022-08-03T08:27:42;24.30;25.90
22923;DHT22;11627;51.322;22.816;2022-08-03T08:30:11;24.00;99.90
22923;DHT22;11627;51.322;22.816;2022-08-03T08:32:37;24.10;99.90
22923;DHT22;11627;51.322;22.816;2022-08-03T08:35:04;24.20;99.90
22923;DHT22;11627;51.322;22.816;2022-08-03T08:37:31;24.10;99.90
22923;DHT22;11627;51.322;22.816;2022-08-03T08:39:57;24.10;1.00
22923;DHT22;11627;51.322;22.816;2022-08-03T08:42:23;24.20;99.90
22923;DHT22;11627;51.322;22.816;2022-08-03T08:44:49;24.20;99.90
22923;DHT22;11627;51.322;22.816;2022-08-03T08:47:24;24.20;99.90
22923;DHT22;11627;51.322;22.816;2022-08-03T08:49:53;24.20;99.90
22923;DHT22;11627;51.322;22.816;2022-08-03T08:52:28;24.50;99.90
22923;DHT22;11627;51.322;22.816;2022-08-03T08:54:58;24.40;99.90
22923;DHT22;11627;51.322;22.816;2022-08-03T08:57:32;24.40;99.90
22923;DHT22;11627;51.322;22.816;2022-08-03T09:00:00;24.70;99.90
22923;DHT22;11627;51.322;22.816;2022-08-03T09:02:30;25.10;22.10
22923;DHT22;11627;51.322;22.816;2022-08-03T09:04:56;25.20;99.90
22923;DHT22;11627;51.322;22.816;2022-08-03T09:07:22;25.10;99.90
22923;DHT22;11627;51.322;22.816;2022-08-03T09:09:48;25.10;99.90
22923;DHT22;11627;51.322;22.816;2022-08-03T09:12:14;25.10;94.40
22923;DHT22;11627;51.322;22.816;2022-08-03T09:14:40;25.10;63.60
22923;DHT22;11627;51.322;22.816;2022-08-03T09:17:05;25.30;99.90
22923;DHT22;11627;51.322;22.816;2022-08-03T09:19:33;25.20;1.00
22923;DHT22;11627;51.322;22.816;2022-08-03T09:22:16;25.40;99.90
22923;DHT22;11627;51.322;22.816;2022-08-03T09:25:03;25.30;1.00
22923;DHT22;11627;51.322;22.816;2022-08-03T09:27:45;25.20;99.90
22923;DHT22;11627;51.322;22.816;2022-08-03T09:30:16;25.20;99.90
22923;DHT22;11627;51.322;22.816;2022-08-03T09:32:43;25.20;99.90
22923;DHT22;11627;51.322;22.816;2022-08-03T09:35:11;25.30;97.60
22923;DHT22;11627;51.322;22.816;2022-08-03T09:37:39;25.70;99.90
22923;DHT22;11627;51.322;22.816;2022-08-03T09:40:05;25.30;99.90
22923;DHT22;11627;51.322;22.816;2022-08-03T09:42:31;25.30;99.90
22923;DHT22;11627;51.322;22.816;2022-08-03T09:45:03;25.30;99.90
22923;DHT22;11627;51.322;22.816;2022-08-03T09:47:31;25.40;99.90
22923;DHT22;11627;51.322;22.816;2022-08-03T09:49:59;25.70;99.90
22923;DHT22;11627;51.322;22.816;2022-08-03T09:52:34;25.80;99.90
22923;DHT22;11627;51.322;22.816;2022-08-03T09:55:10;25.30;99.90
22923;DHT22;11627;51.322;22.816;2022-08-03T09:57:37;25.20;99.90
22923;DHT22;11627;51.322;22.816;2022-08-03T10:00:13;25.10;1.00
22923;DHT22;11627;51.322;22.816;2022-08-03T10:02:41;25.00;1.00
22923;DHT22;11627;51.322;22.816;2022-08-03T10:05:08;25.20;99.90
22923;DHT22;11627;51.322;22.816;2022-08-03T10:07:44;25.00;99.90
22923;DHT22;11627;51.322;22.816;2022-08-03T10:10:12;25.00;99.90
22923;DHT22;11627;51.322;22.816;2022-08-03T10:12:40;25.20;99.90
22923;DHT22;11627;51.322;22.816;2022-08-03T10:15:07;25.10;44.60
22923;DHT22;11627;51.322;22.816;2022-08-03T10:17:34;25.10;99.90
22923;DHT22;11627;51.322;22.816;2022-08-03T10:20:00;25.30;1.00
22923;DHT22;11627;51.322;22.816;2022-08-03T10:22:32;25.40;99.90
22923;DHT22;11627;51.322;22.816;2022-08-03T10:25:06;25.50;99.90
22923;DHT22;11627;51.322;22.816;2022-08-03T10:27:41;25.50;1.00
22923;DHT22;11627;51.322;22.816;2022-08-03T10:30:10;25.60;1.00
22923;DHT22;11627;51.322;22.816;2022-08-03T10:32:54;25.60;1.00
22923;DHT22;11627;51.322;22.816;2022-08-03T10:35:24;25.50;1.00
22923;DHT22;11627;51.322;22.816;2022-08-03T10:37:58;25.50;1.00
22923;DHT22;11627;51.322;22.816;2022-08-03T10:40:27;25.60;99.90
22923;DHT22;11627;51.322;22.816;2022-08-03T10:42:59;25.80;1.00
22923;DHT22;11627;51.322;22.816;2022-08-03T10:45:31;25.60;1.00
22923;DHT22;11627;51.322;22.816;2022-08-03T10:47:58;25.40;8.80
22923;DHT22;11627;51.322;22.816;2022-08-03T10:52:57;25.60;1.00
22923;DHT22;11627;51.322;22.816;2022-08-03T10:55:38;25.20;1.00
22923;DHT22;11627;51.322;22.816;2022-08-03T11:01:06;25.20;99.90
22923;DHT22;11627;51.322;22.816;2022-08-03T11:04:12;25.60;1.00
22923;DHT22;11627;51.322;22.816;2022-08-03T11:06:24;25.60;99.90
22923;DHT22;11627;51.322;22.816;2022-08-03T11:11:39;25.40;1.00
22923;DHT22;11627;51.322;22.816;2022-08-03T11:14:11;25.70;1.00
22923;DHT22;11627;51.322;22.816;2022-08-03T11:19:14;25.80;1.00
22923;DHT22;11627;51.322;22.816;2022-08-03T11:27:17;27.50;1.00
22923;DHT22;11627;51.322;22.816;2022-08-03T11:35:21;26.10;99.90
22923;DHT22;11627;51.322;22.816;2022-08-03T11:38:07;25.90;99.90
22923;DHT22;11627;51.322;22.816;2022-08-03T11:43:02;25.90;99.90
22923;DHT22;11627;51.322;22.816;2022-08-03T11:45:28;25.80;99.90
22923;DHT22;11627;51.322;22.816;2022-08-03T11:50:23;25.70;99.90
22923;DHT22;11627;51.322;22.816;2022-08-03T11:52:50;25.50;99.90
22923;DHT22;11627;51.322;22.816;2022-08-03T11:55:19;25.40;99.90
22923;DHT22;11627;51.322;22.816;2022-08-03T11:57:47;25.40;99.90
22923;DHT22;11627;51.322;22.816;2022-08-03T12:00:24;25.40;99.90
22923;DHT22;11627;51.322;22.816;2022-08-03T12:05:40;25.60;99.90
22923;DHT22;11627;51.322;22.816;2022-08-03T12:08:15;25.70;99.90
22923;DHT22;11627;51.322;22.816;2022-08-03T12:10:47;25.40;99.90
22923;DHT22;11627;51.322;22.816;2022-08-03T12:13:14;26.10;1.00
22923;DHT22;11627;51.322;22.816;2022-08-03T12:15:40;25.70;99.90
22923;DHT22;11627;51.322;22.816;2022-08-03T12:18:15;25.60;99.90
22923;DHT22;11627;51.322;22.816;2022-08-03T12:20:43;25.80;99.90
22923;DHT22;11627;51.322;22.816;2022-08-03T12:23:10;25.90;99.90
22923;DHT22;11627;51.322;22.816;2022-08-03T12:25:38;25.80;99.90
22923;DHT22;11627;51.322;22.816;2022-08-03T12:28:09;26.60;99.90
22923;DHT22;11627;51.322;22.816;2022-08-03T12:30:37;25.90;99.90
22923;DHT22;11627;51.322;22.816;2022-08-03T12:33:18;26.00;99.70
22923;DHT22;11627;51.322;22.816;2022-08-03T12:38:30;26.10;99.90
22923;DHT22;11627;51.322;22.816;2022-08-03T12:41:08;26.00;99.90
22923;DHT22;11627;51.322;22.816;2022-08-03T12:43:49;26.00;99.90
22923;DHT22;11627;51.322;22.816;2022-08-03T12:46:17;26.10;99.90
22923;DHT22;11627;51.322;22.816;2022-08-03T12:49:05;25.90;99.90
22923;DHT22;11627;51.322;22.816;2022-08-03T12:51:37;25.90;99.90
22923;DHT22;11627;51.322;22.816;2022-08-03T12:54:26;26.50;1.00
22923;DHT22;11627;51.322;22.816;2022-08-03T12:57:06;26.90;99.90
22923;DHT22;11627;51.322;22.816;2022-08-03T12:59:37;26.50;99.90
22923;DHT22;11627;51.322;22.816;2022-08-03T13:02:15;26.80;99.90
22923;DHT22;11627;51.322;22.816;2022-08-03T13:04:44;26.60;99.90
22923;DHT22;11627;51.322;22.816;2022-08-03T13:07:12;26.50;99.90
22923;DHT22;11627;51.322;22.816;2022-08-03T13:12:18;26.70;99.90
22923;DHT22;11627;51.322;22.816;2022-08-03T13:14:47;26.70;99.90
22923;DHT22;11627;51.322;22.816;2022-08-03T13:17:15;26.70;99.90
22923;DHT22;11627;51.322;22.816;2022-08-03T13:19:44;26.70;99.90
22923;DHT22;11627;51.322;22.816;2022-08-03T13:22:12;26.90;99.90
22923;DHT22;11627;51.322;22.816;2022-08-03T13:24:43;26.70;99.90
22923;DHT22;11627;51.322;22.816;2022-08-03T13:27:10;26.60;99.90
22923;DHT22;11627;51.322;22.816;2022-08-03T13:29:36;26.80;99.90
22923;DHT22;11627;51.322;22.816;2022-08-03T13:32:03;26.30;99.90
22923;DHT22;11627;51.322;22.816;2022-08-03T13:34:29;26.40;1.00
22923;DHT22;11627;51.322;22.816;2022-08-03T13:36:55;26.60;99.90
22923;DHT22;11627;51.322;22.816;2022-08-03T13:39:20;26.70;99.90
22923;DHT22;11627;51.322;22.816;2022-08-03T13:41:46;26.70;1.00
22923;DHT22;11627;51.322;22.816;2022-08-03T13:44:12;26.80;99.90
22923;DHT22;11627;51.322;22.816;2022-08-03T13:46:38;26.90;99.90
22923;DHT22;11627;51.322;22.816;2022-08-03T13:49:04;26.80;99.90
22923;DHT22;11627;51.322;22.816;2022-08-03T13:51:30;26.80;99.90
22923;DHT22;11627;51.322;22.816;2022-08-03T13:53:56;27.30;99.90
22923;DHT22;11627;51.322;22.816;2022-08-03T13:56:26;26.90;99.90
22923;DHT22;11627;51.322;22.816;2022-08-03T13:58:54;27.10;99.90
22923;DHT22;11627;51.322;22.816;2022-08-03T14:01:20;27.10;99.90
22923;DHT22;11627;51.322;22.816;2022-08-03T14:03:45;27.10;99.90
22923;DHT22;11627;51.322;22.816;2022-08-03T14:06:21;27.10;99.90
22923;DHT22;11627;51.322;22.816;2022-08-03T14:08:48;26.90;99.90
22923;DHT22;11627;51.322;22.816;2022-08-03T14:13:41;27.10;1.00
22923;DHT22;11627;51.322;22.816;2022-08-03T14:16:06;27.20;1.00
22923;DHT22;11627;51.322;22.816;2022-08-03T14:18:32;27.20;63.00
22923;DHT22;11627;51.322;22.816;2022-08-03T14:20:59;28.10;1.00
22923;DHT22;11627;51.322;22.816;2022-08-03T14:23:26;27.00;99.90
22923;DHT22;11627;51.322;22.816;2022-08-03T14:28:19;27.00;99.90
22923;DHT22;11627;51.322;22.816;2022-08-03T14:30:46;27.00;99.90
22923;DHT22;11627;51.322;22.816;2022-08-03T14:33:13;27.00;99.90
22923;DHT22;11627;51.322;22.816;2022-08-03T14:35:38;27.40;32.20
22923;DHT22;11627;51.322;22.816;2022-08-03T14:38:04;27.00;1.80
22923;DHT22;11627;51.322;22.816;2022-08-03T14:40:30;27.10;1.00
22923;DHT22;11627;51.322;22.816;2022-08-03T14:45:22;27.30;99.20
22923;DHT22;11627;51.322;22.816;2022-08-03T14:47:48;27.20;32.70
22923;DHT22;11627;51.322;22.816;2022-08-03T14:50:14;27.30;68.20
22923;DHT22;11627;51.322;22.816;2022-08-03T14:55:05;27.40;1.00
22923;DHT22;11627;51.322;22.816;2022-08-03T14:57:31;27.60;99.90
22923;DHT22;11627;51.322;22.816;2022-08-03T14:59:57;29.20;99.90
22923;DHT22;11627;51.322;22.816;2022-08-03T15:02:24;27.50;1.00
22923;DHT22;11627;51.322;22.816;2022-08-03T15:04:49;27.50;99.90
22923;DHT22;11627;51.322;22.816;2022-08-03T15:07:15;27.90;99.90
22923;DHT22;11627;51.322;22.816;2022-08-03T15:09:41;27.90;99.90
22923;DHT22;11627;51.322;22.816;2022-08-03T15:12:06;27.90;62.80
22923;DHT22;11627;51.322;22.816;2022-08-03T15:14:32;27.70;20.90
22923;DHT22;11627;51.322;22.816;2022-08-03T15:16:58;27.50;43.60
22923;DHT22;11627;51.322;22.816;2022-08-03T15:19:24;27.50;1.00
22923;DHT22;11627;51.322;22.816;2022-08-03T15:21:49;29.10;10.80
22923;DHT22;11627;51.322;22.816;2022-08-03T15:24:15;30.10;1.00
22923;DHT22;11627;51.322;22.816;2022-08-03T15:26:41;28.70;14.40
22923;DHT22;11627;51.322;22.816;2022-08-03T15:29:06;28.30;1.00
22923;DHT22;11627;51.322;22.816;2022-08-03T15:31:33;28.00;99.90
22923;DHT22;11627;51.322;22.816;2022-08-03T15:33:59;27.60;99.90
22923;DHT22;11627;51.322;22.816;2022-08-03T15:36:25;27.30;99.90
22923;DHT22;11627;51.322;22.816;2022-08-03T15:38:51;27.20;99.90
22923;DHT22;11627;51.322;22.816;2022-08-03T15:41:17;27.10;99.90
22923;DHT22;11627;51.322;22.816;2022-08-03T15:43:43;27.00;21.80
22923;DHT22;11627;51.322;22.816;2022-08-03T15:46:11;27.00;7.80
22923;DHT22;11627;51.322;22.816;2022-08-03T15:48:38;27.50;29.60
22923;DHT22;11627;51.322;22.816;2022-08-03T15:51:05;27.30;1.00
22923;DHT22;11627;51.322;22.816;2022-08-03T15:53:31;26.80;1.00
22923;DHT22;11627;51.322;22.816;2022-08-03T15:55:58;27.70;7.20
22923;DHT22;11627;51.322;22.816;2022-08-03T15:58:24;27.70;1.00
22923;DHT22;11627;51.322;22.816;2022-08-03T16:00:55;27.90;1.00
22923;DHT22;11627;51.322;22.816;2022-08-03T16:03:22;27.60;99.90
22923;DHT22;11627;51.322;22.816;2022-08-03T16:05:48;27.50;99.90
22923;DHT22;11627;51.322;22.816;2022-08-03T16:08:14;28.90;99.90
22923;DHT22;11627;51.322;22.816;2022-08-03T16:10:40;28.80;99.90
22923;DHT22;11627;51.322;22.816;2022-08-03T16:13:06;30.50;99.90
22923;DHT22;11627;51.322;22.816;2022-08-03T16:15:32;32.30;17.70
22923;DHT22;11627;51.322;22.816;2022-08-03T16:17:58;33.50;1.00
22923;DHT22;11627;51.322;22.816;2022-08-03T16:20:23;34.70;33.60
22923;DHT22;11627;51.322;22.816;2022-08-03T16:22:50;35.30;1.00
22923;DHT22;11627;51.322;22.816;2022-08-03T16:25:16;35.60;99.90
22923;DHT22;11627;51.322;22.816;2022-08-03T16:27:42;35.40;99.90
22923;DHT22;11627;51.322;22.816;2022-08-03T16:30:10;35.40;99.90
22923;DHT22;11627;51.322;22.816;2022-08-03T16:32:37;34.90;99.90
22923;DHT22;11627;51.322;22.816;2022-08-03T16:35:05;34.00;99.90
22923;DHT22;11627;51.322;22.816;2022-08-03T16:37:31;33.00;1.00